createdAt,value
2018-06-22T00:00:25.444Z,11.06
2018-06-22T00:01:25.390Z,10.99
2018-06-22T00:02:25.450Z,11.01
2018-06-22T00:03:25.446Z,11.02
2018-06-22T00:04:25.406Z,11.01
2018-06-22T00:05:25.392Z,10.95
2018-06-22T00:06:25.385Z,10.90
2018-06-22T00:07:25.410Z,10.91
2018-06-22T00:08:25.361Z,10.88
2018-06-22T00:09:25.355Z,10.88
2018-06-22T00:10:32.345Z,10.87
2018-06-22T00:11:25.324Z,10.90
2018-06-22T00:12:25.304Z,10.75
2018-06-22T00:13:25.330Z,10.83
2018-06-22T00:14:25.315Z,10.81
2018-06-22T00:15:25.279Z,10.93
2018-06-22T00:16:25.278Z,10.81
2018-06-22T00:17:25.298Z,10.86
2018-06-22T00:18:25.253Z,10.78
2018-06-22T00:19:25.239Z,10.76
2018-06-22T00:20:25.233Z,10.81
2018-06-22T00:21:25.221Z,10.78
2018-06-22T00:22:25.228Z,10.75
2018-06-22T00:23:25.194Z,10.70
2018-06-22T00:24:25.192Z,10.65
2018-06-22T00:25:25.179Z,10.73
2018-06-22T00:26:25.165Z,10.78
2018-06-22T00:27:25.170Z,10.65
2018-06-22T00:28:25.180Z,10.68
2018-06-22T00:29:25.127Z,10.63
2018-06-22T00:30:25.116Z,10.72
2018-06-22T00:31:25.110Z,10.63
2018-06-22T00:32:25.114Z,10.68
2018-06-22T00:33:25.047Z,10.73
2018-06-22T00:34:25.028Z,10.78
2018-06-22T00:35:25.212Z,10.73
2018-06-22T00:36:25.056Z,10.76
2018-06-22T00:37:25.050Z,10.76
2018-06-22T00:38:25.145Z,10.84
2018-06-22T00:39:25.014Z,10.83
2018-06-22T00:40:25.020Z,10.90
2018-06-22T00:41:24.997Z,10.91
2018-06-22T00:42:24.993Z,10.90
2018-06-22T00:43:24.996Z,10.93
2018-06-22T00:44:24.965Z,11.03
2018-06-22T00:45:24.951Z,11.12
2018-06-22T00:46:24.945Z,11.17
2018-06-22T00:47:24.944Z,11.12
2018-06-22T00:48:24.939Z,11.13
2018-06-22T00:49:24.918Z,11.17
2018-06-22T00:50:24.907Z,11.21
2018-06-22T00:51:24.887Z,11.13
2018-06-22T00:52:24.873Z,11.19
2018-06-22T00:53:24.894Z,11.13
2018-06-22T00:54:24.906Z,11.17
2018-06-22T00:55:24.846Z,11.16
2018-06-22T00:56:24.833Z,11.28
2018-06-22T00:57:24.817Z,11.24
2018-06-22T00:58:24.834Z,11.16
2018-06-22T00:59:24.795Z,11.20
2018-06-22T01:00:24.808Z,11.24
2018-06-22T01:01:24.785Z,11.21
2018-06-22T01:02:24.762Z,11.30
2018-06-22T01:03:24.797Z,11.21
2018-06-22T01:04:24.739Z,11.36
2018-06-22T01:05:24.735Z,11.42
2018-06-22T01:06:24.719Z,11.28
2018-06-22T01:07:24.715Z,11.42
2018-06-22T01:08:31.724Z,11.38
2018-06-22T01:09:24.681Z,11.38
2018-06-22T01:10:24.628Z,11.44
2018-06-22T01:11:24.658Z,11.45
2018-06-22T01:12:24.649Z,11.51
2018-06-22T01:13:24.666Z,11.46
2018-06-22T01:14:24.634Z,11.51
2018-06-22T01:15:24.626Z,11.44
2018-06-22T01:16:24.601Z,11.45
2018-06-22T01:17:24.597Z,11.36
2018-06-22T01:18:24.616Z,11.48
2018-06-22T01:19:24.528Z,11.49
2018-06-22T01:20:24.566Z,11.57
2018-06-22T01:21:24.548Z,11.46
2018-06-22T01:22:24.595Z,11.56
2018-06-22T01:23:24.553Z,11.60
2018-06-22T01:24:24.567Z,11.62
2018-06-22T01:25:24.524Z,11.54
2018-06-22T01:26:24.498Z,11.62
2018-06-22T01:27:24.494Z,11.57
2018-06-22T01:28:24.513Z,11.59
2018-06-22T01:29:24.464Z,11.54
2018-06-22T01:30:24.460Z,11.57
2018-06-22T01:31:24.435Z,11.63
2018-06-22T01:32:24.430Z,11.56
2018-06-22T01:33:24.479Z,11.60
2018-06-22T01:34:24.493Z,11.66
2018-06-22T01:35:24.406Z,11.66
2018-06-22T01:36:24.385Z,11.67
2018-06-22T01:37:24.367Z,11.69
2018-06-22T01:38:24.340Z,11.69
2018-06-22T01:39:24.359Z,11.74
2018-06-22T01:40:24.345Z,11.70
2018-06-22T01:41:24.286Z,11.67
2018-06-22T01:42:24.271Z,11.69
2018-06-22T01:43:24.353Z,11.66
2018-06-22T01:44:24.297Z,11.67
2018-06-22T01:45:24.284Z,11.70
2018-06-22T01:46:24.271Z,11.67
2018-06-22T01:47:24.226Z,11.70
2018-06-22T01:48:24.304Z,11.70
2018-06-22T01:49:24.251Z,11.67
2018-06-22T01:50:24.237Z,11.67
2018-06-22T01:51:24.217Z,11.67
2018-06-22T01:52:24.218Z,11.69
2018-06-22T01:53:24.233Z,11.67
2018-06-22T01:54:24.145Z,11.70
2018-06-22T01:55:24.206Z,11.72
2018-06-22T01:56:24.168Z,11.67
2018-06-22T01:57:24.109Z,11.67
2018-06-22T01:58:24.167Z,11.67
2018-06-22T01:59:24.135Z,11.64
2018-06-22T02:00:24.123Z,11.60
2018-06-22T02:01:24.111Z,11.59
2018-06-22T02:02:24.059Z,11.62
2018-06-22T02:03:24.143Z,11.66
2018-06-22T02:04:24.073Z,11.56
2018-06-22T02:05:24.068Z,11.60
2018-06-22T02:06:24.027Z,11.62
2018-06-22T02:07:24.050Z,11.66
2018-06-22T02:08:24.067Z,11.63
2018-06-22T02:09:24.020Z,11.62
2018-06-22T02:10:24.015Z,11.63
2018-06-22T02:11:23.965Z,11.63
2018-06-22T02:12:23.994Z,11.62
2018-06-22T02:13:24.007Z,11.62
2018-06-22T02:14:23.924Z,11.63
2018-06-22T02:15:24.001Z,11.64
2018-06-22T02:16:23.947Z,11.60
2018-06-22T02:17:23.931Z,11.66
2018-06-22T02:18:23.984Z,11.63
2018-06-22T02:19:23.939Z,11.64
2018-06-22T02:20:23.905Z,11.63
2018-06-22T02:21:23.842Z,11.63
2018-06-22T02:22:23.837Z,11.74
2018-06-22T02:23:23.890Z,11.66
2018-06-22T02:24:23.867Z,11.63
2018-06-22T02:25:23.849Z,11.70
2018-06-22T02:26:23.786Z,11.60
2018-06-22T02:27:23.824Z,11.66
2018-06-22T02:28:23.860Z,11.64
2018-06-22T02:29:23.762Z,11.67
2018-06-22T02:30:23.810Z,11.74
2018-06-22T02:31:23.778Z,11.67
2018-06-22T02:32:23.793Z,11.75
2018-06-22T02:33:23.768Z,11.75
2018-06-22T02:34:23.723Z,11.78
2018-06-22T02:35:23.761Z,11.72
2018-06-22T02:36:23.725Z,11.75
2018-06-22T02:37:23.716Z,11.78
2018-06-22T02:38:23.707Z,11.72
2018-06-22T02:39:23.714Z,11.75
2018-06-22T02:40:23.681Z,11.63
2018-06-22T02:41:23.663Z,11.74
2018-06-22T02:42:23.616Z,11.77
2018-06-22T02:43:23.655Z,11.64
2018-06-22T02:44:23.659Z,11.66
2018-06-22T02:45:23.629Z,11.69
2018-06-22T02:46:23.630Z,11.57
2018-06-22T02:47:23.613Z,11.60
2018-06-22T02:48:23.593Z,11.60
2018-06-22T02:49:23.615Z,11.59
2018-06-22T02:50:23.577Z,11.63
2018-06-22T02:51:23.577Z,11.59
2018-06-22T02:52:23.499Z,11.63
2018-06-22T02:53:23.540Z,11.67
2018-06-22T02:54:23.555Z,11.60
2018-06-22T02:55:23.524Z,11.60
2018-06-22T02:56:23.511Z,11.57
2018-06-22T02:57:23.501Z,11.69
2018-06-22T02:58:23.529Z,11.67
2018-06-22T02:59:23.493Z,11.69
2018-06-22T03:00:23.456Z,11.63
2018-06-22T03:01:23.446Z,11.63
2018-06-22T03:02:23.454Z,11.67
2018-06-22T03:03:23.381Z,11.66
2018-06-22T03:04:23.436Z,11.56
2018-06-22T03:05:23.411Z,11.66
2018-06-22T03:06:23.409Z,11.59
2018-06-22T03:07:23.396Z,11.63
2018-06-22T03:08:23.373Z,11.60
2018-06-22T03:09:23.387Z,11.67
2018-06-22T03:10:23.366Z,11.64
2018-06-22T03:11:23.345Z,11.63
2018-06-22T03:12:23.329Z,11.63
2018-06-22T03:13:23.342Z,11.64
2018-06-22T03:14:23.327Z,11.66
2018-06-22T03:15:23.300Z,11.63
2018-06-22T03:16:23.249Z,11.51
2018-06-22T03:17:23.273Z,11.59
2018-06-22T03:18:23.293Z,11.63
2018-06-22T03:19:23.231Z,11.57
2018-06-22T03:20:23.242Z,11.60
2018-06-22T03:21:23.238Z,11.59
2018-06-22T03:22:23.229Z,11.64
2018-06-22T03:23:23.206Z,11.63
2018-06-22T03:24:23.227Z,11.62
2018-06-22T03:25:23.189Z,11.63
2018-06-22T03:26:23.268Z,11.70
2018-06-22T03:27:23.167Z,11.69
2018-06-22T03:28:23.167Z,11.63
2018-06-22T03:29:23.174Z,11.59
2018-06-22T03:30:23.139Z,11.62
2018-06-22T03:31:23.128Z,11.57
2018-06-22T03:32:23.120Z,11.59
2018-06-22T03:33:23.135Z,11.46
2018-06-22T03:34:23.128Z,11.46
2018-06-22T03:35:23.081Z,11.46
2018-06-22T03:36:23.075Z,11.41
2018-06-22T03:37:23.074Z,11.44
2018-06-22T03:38:23.046Z,11.36
2018-06-22T03:39:23.086Z,11.35
2018-06-22T03:40:23.021Z,11.24
2018-06-22T03:41:23.041Z,11.28
2018-06-22T03:42:23.131Z,11.33
2018-06-22T03:43:22.990Z,11.31
2018-06-22T03:44:23.011Z,11.27
2018-06-22T03:45:22.986Z,11.31
2018-06-22T03:46:22.956Z,11.19
2018-06-22T03:47:22.943Z,11.23
2018-06-22T03:48:22.933Z,11.20
2018-06-22T03:49:22.940Z,11.28
2018-06-22T03:50:22.958Z,11.11
2018-06-22T03:51:22.932Z,11.17
2018-06-22T03:52:22.896Z,11.21
2018-06-22T03:53:22.883Z,11.19
2018-06-22T03:54:22.903Z,11.19
2018-06-22T03:55:22.855Z,11.24
2018-06-22T03:56:22.841Z,11.26
2018-06-22T03:57:22.835Z,11.20
2018-06-22T03:58:22.823Z,11.23
2018-06-22T03:59:22.832Z,11.19
2018-06-22T04:00:22.801Z,11.19
2018-06-22T04:01:22.796Z,11.28
2018-06-22T04:02:22.776Z,11.21
2018-06-22T04:03:22.773Z,11.30
2018-06-22T04:04:22.782Z,11.23
2018-06-22T04:05:22.752Z,11.26
2018-06-22T04:06:22.734Z,11.31
2018-06-22T04:07:22.726Z,11.26
2018-06-22T04:08:22.715Z,11.26
2018-06-22T04:09:22.684Z,11.36
2018-06-22T04:10:22.687Z,11.41
2018-06-22T04:11:22.674Z,11.35
2018-06-22T04:12:22.669Z,11.31
2018-06-22T04:13:22.658Z,11.33
2018-06-22T04:14:22.663Z,11.42
2018-06-22T04:15:22.633Z,11.49
2018-06-22T04:16:22.701Z,11.42
2018-06-22T04:17:22.608Z,11.42
2018-06-22T04:18:22.604Z,11.41
2018-06-22T04:19:22.651Z,11.49
2018-06-22T04:20:22.583Z,11.49
2018-06-22T04:21:22.586Z,11.48
2018-06-22T04:22:22.559Z,11.54
2018-06-22T04:23:22.574Z,11.53
2018-06-22T04:24:22.583Z,11.57
2018-06-22T04:25:22.525Z,11.57
2018-06-22T04:26:22.467Z,11.56
2018-06-22T04:27:22.509Z,11.63
2018-06-22T04:28:22.494Z,11.64
2018-06-22T04:29:22.478Z,11.72
2018-06-22T04:30:22.495Z,11.64
2018-06-22T04:31:22.460Z,11.77
2018-06-22T04:32:22.452Z,11.74
2018-06-22T04:33:22.441Z,11.72
2018-06-22T04:34:22.426Z,11.77
2018-06-22T04:35:22.493Z,11.78
2018-06-22T04:36:22.450Z,11.77
2018-06-22T04:37:22.393Z,11.88
2018-06-22T04:38:22.383Z,11.85
2018-06-22T04:39:22.382Z,11.97
2018-06-22T04:40:22.383Z,11.90
2018-06-22T04:41:22.368Z,12.01
2018-06-22T04:42:22.341Z,11.98
2018-06-22T04:43:22.328Z,12.04
2018-06-22T04:44:22.316Z,12.11
2018-06-22T04:45:22.326Z,12.04
2018-06-22T04:46:22.302Z,12.15
2018-06-22T04:47:22.283Z,12.11
2018-06-22T04:48:22.278Z,12.19
2018-06-22T04:49:22.262Z,12.26
2018-06-22T04:50:22.275Z,12.38
2018-06-22T04:51:22.257Z,12.30
2018-06-22T04:52:22.234Z,12.40
2018-06-22T04:53:22.227Z,12.43
2018-06-22T04:54:22.211Z,12.48
2018-06-22T04:55:22.223Z,12.46
2018-06-22T04:56:22.198Z,12.44
2018-06-22T04:57:22.173Z,12.46
2018-06-22T04:58:22.177Z,12.51
2018-06-22T04:59:22.178Z,12.58
2018-06-22T05:00:22.176Z,12.66
2018-06-22T05:01:22.130Z,12.77
2018-06-22T05:02:22.126Z,12.79
2018-06-22T05:03:22.061Z,12.88
2018-06-22T05:04:22.105Z,12.87
2018-06-22T05:05:22.106Z,12.88
2018-06-22T05:06:22.073Z,12.92
2018-06-22T05:07:22.076Z,12.79
2018-06-22T05:08:22.069Z,12.73
2018-06-22T05:09:22.064Z,12.73
2018-06-22T05:10:22.053Z,12.79
2018-06-22T05:11:22.019Z,12.77
2018-06-22T05:12:22.104Z,12.79
2018-06-22T05:13:21.995Z,12.89
2018-06-22T05:14:21.983Z,12.88
2018-06-22T05:15:22.057Z,13.09
2018-06-22T05:16:21.962Z,13.63
2018-06-22T05:17:21.957Z,13.93
2018-06-22T05:18:21.947Z,14.19
2018-06-22T05:19:21.948Z,14.27
2018-06-22T05:20:21.941Z,14.19
2018-06-22T05:21:21.913Z,14.04
2018-06-22T05:22:21.908Z,13.98
2018-06-22T05:23:21.892Z,13.91
2018-06-22T05:24:21.884Z,13.83
2018-06-22T05:25:21.898Z,13.84
2018-06-22T05:26:21.857Z,13.90
2018-06-22T05:27:21.845Z,14.06
2018-06-22T05:28:21.968Z,14.20
2018-06-22T05:29:28.844Z,14.19
2018-06-22T05:30:21.836Z,14.09
2018-06-22T05:31:21.791Z,14.01
2018-06-22T05:32:21.795Z,13.88
2018-06-22T05:33:21.780Z,13.81
2018-06-22T05:34:21.773Z,13.73
2018-06-22T05:35:21.781Z,13.76
2018-06-22T05:36:21.752Z,13.81
2018-06-22T05:37:21.743Z,13.71
2018-06-22T05:38:21.727Z,13.75
2018-06-22T05:39:21.722Z,13.71
2018-06-22T05:40:21.735Z,13.83
2018-06-22T05:41:21.696Z,13.72
2018-06-22T05:42:21.693Z,13.81
2018-06-22T05:43:21.706Z,13.91
2018-06-22T05:44:21.660Z,14.02
2018-06-22T05:45:21.685Z,14.02
2018-06-22T05:46:21.647Z,14.01
2018-06-22T05:47:21.635Z,13.90
2018-06-22T05:48:21.630Z,13.98
2018-06-22T05:49:21.617Z,13.98
2018-06-22T05:50:21.617Z,13.96
2018-06-22T05:51:21.589Z,13.94
2018-06-22T05:52:21.663Z,13.96
2018-06-22T05:53:21.575Z,13.83
2018-06-22T05:54:21.550Z,13.71
2018-06-22T05:55:21.595Z,13.72
2018-06-22T05:56:21.571Z,13.71
2018-06-22T05:57:21.519Z,13.68
2018-06-22T05:58:21.518Z,13.68
2018-06-22T05:59:21.514Z,13.73
2018-06-22T06:00:21.516Z,13.72
2018-06-22T06:01:21.479Z,13.81
2018-06-22T06:02:21.469Z,13.83
2018-06-22T06:03:21.462Z,13.96
2018-06-22T06:04:21.491Z,14.01
2018-06-22T06:05:21.421Z,14.04
2018-06-22T06:06:21.422Z,14.11
2018-06-22T06:07:21.423Z,14.23
2018-06-22T06:08:21.355Z,14.20
2018-06-22T06:09:21.396Z,14.17
2018-06-22T06:10:21.515Z,14.17
2018-06-22T06:11:21.374Z,14.20
2018-06-22T06:12:21.410Z,14.17
2018-06-22T06:13:21.348Z,14.19
2018-06-22T06:14:21.352Z,14.05
2018-06-22T06:15:21.342Z,14.13
2018-06-22T06:16:21.319Z,14.13
2018-06-22T06:17:21.302Z,14.12
2018-06-22T06:18:21.293Z,14.11
2018-06-22T06:19:21.280Z,14.04
2018-06-22T06:20:21.273Z,14.05
2018-06-22T06:21:21.283Z,14.02
2018-06-22T06:22:21.254Z,14.04
2018-06-22T06:23:21.248Z,13.96
2018-06-22T06:24:21.285Z,14.12
2018-06-22T06:25:21.213Z,14.16
2018-06-22T06:26:21.233Z,14.09
2018-06-22T06:27:21.204Z,14.09
2018-06-22T06:28:21.184Z,14.17
2018-06-22T06:29:21.174Z,14.26
2018-06-22T06:30:21.163Z,14.19
2018-06-22T06:31:21.188Z,14.20
2018-06-22T06:32:21.146Z,14.09
2018-06-22T06:33:21.124Z,14.05
2018-06-22T06:34:21.136Z,14.04
2018-06-22T06:35:21.104Z,13.99
2018-06-22T06:36:21.114Z,14.01
2018-06-22T06:37:21.089Z,14.13
2018-06-22T06:38:21.077Z,14.12
2018-06-22T06:39:21.063Z,14.19
2018-06-22T06:40:21.062Z,14.19
2018-06-22T06:41:21.065Z,14.21
2018-06-22T06:42:21.029Z,14.27
2018-06-22T06:43:21.025Z,14.21
2018-06-22T06:44:21.006Z,14.12
2018-06-22T06:45:21.000Z,14.13
2018-06-22T06:46:21.009Z,14.11
2018-06-22T06:47:20.978Z,14.21
2018-06-22T06:48:20.975Z,14.26
2018-06-22T06:49:20.958Z,14.35
2018-06-22T06:50:20.943Z,14.52
2018-06-22T06:51:20.961Z,14.48
2018-06-22T06:52:20.919Z,14.48
2018-06-22T06:53:20.914Z,14.31
2018-06-22T06:54:20.914Z,14.26
2018-06-22T06:55:20.890Z,14.17
2018-06-22T06:56:20.910Z,14.20
2018-06-22T06:57:20.875Z,14.26
2018-06-22T06:58:20.859Z,14.17
2018-06-22T06:59:20.800Z,14.23
2018-06-22T07:00:20.833Z,14.29
2018-06-22T07:01:20.863Z,14.29
2018-06-22T07:02:20.819Z,14.44
2018-06-22T07:03:20.804Z,14.52
2018-06-22T07:04:20.804Z,14.56
2018-06-22T07:05:20.785Z,14.57
2018-06-22T07:06:20.795Z,14.59
2018-06-22T07:07:20.770Z,14.61
2018-06-22T07:08:20.787Z,14.67
2018-06-22T07:09:20.734Z,14.83
2018-06-22T07:10:20.728Z,14.80
2018-06-22T07:11:20.746Z,14.85
2018-06-22T07:12:20.704Z,15.01
2018-06-22T07:13:20.691Z,15.04
2018-06-22T07:14:20.691Z,14.90
2018-06-22T07:15:20.675Z,14.94
2018-06-22T07:16:20.697Z,14.80
2018-06-22T07:17:20.647Z,14.79
2018-06-22T07:18:20.657Z,14.66
2018-06-22T07:19:20.652Z,14.61
2018-06-22T07:20:20.624Z,14.57
2018-06-22T07:21:20.631Z,14.52
2018-06-22T07:22:20.600Z,14.63
2018-06-22T07:23:20.593Z,14.80
2018-06-22T07:24:20.580Z,14.83
2018-06-22T07:25:20.526Z,14.91
2018-06-22T07:26:20.620Z,14.90
2018-06-22T07:27:20.545Z,15.16
2018-06-22T07:28:20.589Z,15.34
2018-06-22T07:29:20.528Z,15.44
2018-06-22T07:30:20.521Z,15.48
2018-06-22T07:31:20.545Z,15.44
2018-06-22T07:32:20.485Z,15.41
2018-06-22T07:33:20.478Z,15.48
2018-06-22T07:34:20.459Z,15.43
2018-06-22T07:35:20.458Z,15.40
2018-06-22T07:36:20.462Z,15.55
2018-06-22T07:37:20.426Z,15.43
2018-06-22T07:38:20.386Z,15.44
2018-06-22T07:39:20.407Z,15.31
2018-06-22T07:40:20.395Z,15.30
2018-06-22T07:41:20.371Z,15.13
2018-06-22T07:42:20.376Z,15.11
2018-06-22T07:43:20.379Z,15.11
2018-06-22T07:44:20.447Z,15.01
2018-06-22T07:45:20.342Z,15.07
2018-06-22T07:46:20.356Z,15.00
2018-06-22T07:47:20.316Z,15.03
2018-06-22T07:48:20.311Z,15.04
2018-06-22T07:49:20.265Z,15.15
2018-06-22T07:50:20.285Z,15.03
2018-06-22T07:51:20.292Z,15.19
2018-06-22T07:52:20.262Z,15.16
2018-06-22T07:53:20.258Z,15.19
2018-06-22T07:54:20.241Z,15.19
2018-06-22T07:55:20.235Z,15.09
2018-06-22T07:56:20.198Z,14.94
2018-06-22T07:57:20.220Z,14.94
2018-06-22T07:58:20.201Z,14.94
2018-06-22T07:59:20.186Z,15.09
2018-06-22T08:00:20.136Z,14.98
2018-06-22T08:01:20.186Z,15.20
2018-06-22T08:02:20.165Z,15.44
2018-06-22T08:03:20.144Z,15.70
2018-06-22T08:04:20.132Z,15.77
2018-06-22T08:05:20.116Z,15.93
2018-06-22T08:06:20.130Z,16.06
2018-06-22T08:07:20.118Z,16.30
2018-06-22T08:08:20.088Z,16.22
2018-06-22T08:09:20.075Z,16.40
2018-06-22T08:10:20.070Z,16.48
2018-06-22T08:11:20.078Z,16.37
2018-06-22T08:12:20.066Z,16.52
2018-06-22T08:13:20.036Z,16.60
2018-06-22T08:14:20.022Z,16.60
2018-06-22T08:15:20.016Z,16.51
2018-06-22T08:16:19.998Z,16.29
2018-06-22T08:17:20.007Z,16.23
2018-06-22T08:18:19.981Z,16.10
2018-06-22T08:19:19.965Z,15.91
2018-06-22T08:20:19.955Z,15.86
2018-06-22T08:21:19.986Z,15.78
2018-06-22T08:22:19.956Z,15.88
2018-06-22T08:23:19.930Z,15.91
2018-06-22T08:24:19.933Z,15.99
2018-06-22T08:25:19.898Z,15.98
2018-06-22T08:26:19.886Z,16.01
2018-06-22T08:27:19.902Z,15.93
2018-06-22T08:28:19.873Z,15.98
2018-06-22T08:29:19.857Z,15.99
2018-06-22T08:30:19.855Z,16.08
2018-06-22T08:31:19.841Z,16.16
2018-06-22T08:32:19.844Z,16.36
2018-06-22T08:33:19.820Z,16.84
2018-06-22T08:34:19.812Z,17.25
2018-06-22T08:35:19.793Z,17.32
2018-06-22T08:36:19.777Z,16.91
2018-06-22T08:37:19.793Z,16.62
2018-06-22T08:38:19.760Z,16.70
2018-06-22T08:39:19.754Z,16.78
2018-06-22T08:40:19.711Z,16.80
2018-06-22T08:41:19.721Z,16.70
2018-06-22T08:42:19.736Z,16.82
2018-06-22T08:43:19.710Z,16.85
2018-06-22T08:44:19.689Z,16.91
2018-06-22T08:45:19.678Z,16.90
2018-06-22T08:46:19.670Z,16.80
2018-06-22T08:47:19.684Z,16.81
2018-06-22T08:48:19.653Z,16.80
2018-06-22T08:49:19.645Z,16.98
2018-06-22T08:50:19.621Z,17.10
2018-06-22T08:51:19.612Z,17.32
2018-06-22T08:52:19.628Z,17.27
2018-06-22T08:53:19.597Z,17.32
2018-06-22T08:54:19.582Z,17.28
2018-06-22T08:55:19.568Z,17.33
2018-06-22T08:56:19.620Z,17.39
2018-06-22T08:57:19.579Z,17.28
2018-06-22T08:58:19.542Z,17.33
2018-06-22T08:59:19.525Z,17.32
2018-06-22T09:00:19.517Z,17.40
2018-06-22T09:01:19.509Z,17.32
2018-06-22T09:02:19.545Z,17.27
2018-06-22T09:03:19.442Z,17.28
2018-06-22T09:04:19.492Z,17.33
2018-06-22T09:05:19.465Z,17.32
2018-06-22T09:06:19.454Z,17.55
2018-06-22T09:07:19.467Z,17.55
2018-06-22T09:08:19.435Z,17.66
2018-06-22T09:09:19.421Z,17.70
2018-06-22T09:10:19.413Z,17.62
2018-06-22T09:11:19.397Z,17.58
2018-06-22T09:12:19.406Z,17.74
2018-06-22T09:13:19.382Z,18.05
2018-06-22T09:14:19.364Z,18.53
2018-06-22T09:15:19.356Z,18.87
2018-06-22T09:16:19.344Z,18.91
2018-06-22T09:17:19.500Z,19.06
2018-06-22T09:18:19.318Z,19.02
2018-06-22T09:19:19.315Z,19.15
2018-06-22T09:20:19.303Z,19.02
2018-06-22T09:21:19.285Z,18.91
2018-06-22T09:22:19.323Z,18.76
2018-06-22T09:23:19.267Z,18.69
2018-06-22T09:24:19.254Z,18.57
2018-06-22T09:25:19.288Z,18.54
2018-06-22T09:26:19.227Z,18.14
2018-06-22T09:27:19.242Z,18.07
2018-06-22T09:28:19.209Z,18.05
2018-06-22T09:29:19.200Z,17.92
2018-06-22T09:30:19.194Z,17.91
2018-06-22T09:31:19.221Z,17.98
2018-06-22T09:32:19.184Z,17.79
2018-06-22T09:33:19.150Z,17.42
2018-06-22T09:34:19.142Z,17.32
2018-06-22T09:35:19.136Z,17.35
2018-06-22T09:36:19.233Z,17.35
2018-06-22T09:37:19.109Z,17.30
2018-06-22T09:38:19.115Z,17.40
2018-06-22T09:39:19.098Z,17.63
2018-06-22T09:40:19.074Z,17.63
2018-06-22T09:41:19.070Z,17.71
2018-06-22T09:42:19.057Z,17.74
2018-06-22T09:43:19.061Z,17.71
2018-06-22T09:44:19.024Z,17.79
2018-06-22T09:45:19.019Z,17.80
2018-06-22T09:46:19.005Z,17.86
2018-06-22T09:47:18.998Z,17.76
2018-06-22T09:48:19.022Z,17.80
2018-06-22T09:49:18.974Z,17.73
2018-06-22T09:50:18.964Z,17.63
2018-06-22T09:51:18.959Z,17.62
2018-06-22T09:52:18.942Z,17.70
2018-06-22T09:53:18.954Z,17.63
2018-06-22T09:54:18.924Z,17.39
2018-06-22T09:55:18.918Z,17.35
2018-06-22T09:56:18.896Z,17.27
2018-06-22T09:57:18.893Z,17.07
2018-06-22T09:58:18.901Z,16.95
2018-06-22T09:59:18.866Z,16.84
2018-06-22T10:00:18.863Z,16.80
2018-06-22T10:01:18.841Z,16.70
2018-06-22T10:02:18.836Z,16.81
2018-06-22T10:03:18.848Z,16.80
2018-06-22T10:04:18.811Z,16.80
2018-06-22T10:05:18.805Z,16.84
2018-06-22T10:06:18.798Z,16.98
2018-06-22T10:07:18.761Z,17.05
2018-06-22T10:08:18.850Z,16.92
2018-06-22T10:09:18.726Z,16.84
2018-06-22T10:10:18.745Z,16.99
2018-06-22T10:11:18.751Z,16.95
2018-06-22T10:12:18.732Z,16.82
2018-06-22T10:13:18.713Z,16.69
2018-06-22T10:14:18.711Z,16.69
2018-06-22T10:15:18.702Z,16.52
2018-06-22T10:16:18.728Z,16.62
2018-06-22T10:17:18.680Z,16.50
2018-06-22T10:18:18.696Z,16.59
2018-06-22T10:19:18.652Z,16.51
2018-06-22T10:20:18.642Z,16.51
2018-06-22T10:21:18.629Z,16.51
2018-06-22T10:22:18.638Z,16.66
2018-06-22T10:23:18.629Z,16.78
2018-06-22T10:24:18.597Z,16.85
2018-06-22T10:25:18.587Z,16.92
2018-06-22T10:26:18.575Z,17.06
2018-06-22T10:27:18.611Z,17.07
2018-06-22T10:28:18.578Z,17.21
2018-06-22T10:29:18.511Z,17.12
2018-06-22T10:30:18.546Z,17.07
2018-06-22T10:31:18.524Z,16.82
2018-06-22T10:32:18.552Z,16.67
2018-06-22T10:33:18.529Z,16.52
2018-06-22T10:34:18.502Z,16.25
2018-06-22T10:35:18.475Z,16.08
2018-06-22T10:36:18.472Z,16.08
2018-06-22T10:37:18.456Z,16.11
2018-06-22T10:38:18.460Z,16.23
2018-06-22T10:39:18.504Z,16.25
2018-06-22T10:40:18.447Z,16.34
2018-06-22T10:41:18.414Z,16.40
2018-06-22T10:42:18.406Z,16.41
2018-06-22T10:43:18.409Z,16.47
2018-06-22T10:44:18.378Z,16.36
2018-06-22T10:45:18.367Z,16.30
2018-06-22T10:46:18.360Z,16.25
2018-06-22T10:47:18.344Z,16.26
2018-06-22T10:48:18.346Z,16.18
2018-06-22T10:49:18.365Z,16.16
2018-06-22T10:50:18.318Z,16.14
2018-06-22T10:51:18.307Z,16.13
2018-06-22T10:52:18.291Z,16.01
2018-06-22T10:53:18.237Z,15.92
2018-06-22T10:54:18.298Z,15.88
2018-06-22T10:55:18.264Z,15.92
2018-06-22T10:56:18.245Z,15.96
2018-06-22T10:57:18.251Z,16.01
2018-06-22T10:58:18.230Z,16.06
2018-06-22T10:59:18.245Z,16.07
2018-06-22T11:00:18.213Z,16.08
2018-06-22T11:01:18.193Z,16.10
2018-06-22T11:02:18.190Z,16.08
2018-06-22T11:03:18.175Z,16.10
2018-06-22T11:04:18.187Z,16.08
2018-06-22T11:05:18.144Z,16.33
2018-06-22T11:06:18.098Z,16.59
2018-06-22T11:07:18.125Z,16.81
2018-06-22T11:08:18.116Z,16.87
2018-06-22T11:09:18.230Z,17.07
2018-06-22T11:10:18.089Z,17.15
2018-06-22T11:11:18.092Z,17.35
2018-06-22T11:12:18.057Z,17.33
2018-06-22T11:13:18.063Z,17.35
2018-06-22T11:14:18.071Z,17.49
2018-06-22T11:15:18.045Z,17.76
2018-06-22T11:16:18.036Z,17.92
2018-06-22T11:17:18.070Z,18.02
2018-06-22T11:18:18.064Z,18.19
2018-06-22T11:19:18.016Z,18.10
2018-06-22T11:20:17.984Z,18.02
2018-06-22T11:21:18.037Z,17.91
2018-06-22T11:22:17.926Z,17.86
2018-06-22T11:23:17.958Z,17.91
2018-06-22T11:24:17.969Z,17.91
2018-06-22T11:25:17.890Z,18.01
2018-06-22T11:26:17.931Z,18.11
2018-06-22T11:27:17.953Z,18.16
2018-06-22T11:28:17.917Z,18.42
2018-06-22T11:29:17.907Z,18.39
2018-06-22T11:30:17.879Z,18.41
2018-06-22T11:31:17.864Z,18.34
2018-06-22T11:32:17.942Z,18.35
2018-06-22T11:33:17.960Z,18.26
2018-06-22T11:34:17.858Z,18.36
2018-06-22T11:35:17.830Z,18.53
2018-06-22T11:36:17.879Z,18.54
2018-06-22T11:37:17.855Z,18.68
2018-06-22T11:38:17.745Z,18.59
2018-06-22T11:39:17.815Z,18.66
2018-06-22T11:40:17.776Z,18.60
2018-06-22T11:41:17.804Z,18.46
2018-06-22T11:42:17.749Z,18.41
2018-06-22T11:43:17.741Z,18.41
2018-06-22T11:44:17.752Z,18.44
2018-06-22T11:45:17.709Z,18.44
2018-06-22T11:46:17.698Z,18.42
2018-06-22T11:47:17.719Z,18.10
2018-06-22T11:48:17.678Z,17.91
2018-06-22T11:49:17.834Z,17.77
2018-06-22T11:50:17.658Z,17.71
2018-06-22T11:51:17.612Z,17.70
2018-06-22T11:52:17.642Z,17.73
2018-06-22T11:53:17.620Z,17.77
2018-06-22T11:54:17.624Z,17.77
2018-06-22T11:55:17.616Z,17.79
2018-06-22T11:56:17.602Z,17.89
2018-06-22T11:57:17.605Z,17.94
2018-06-22T11:58:17.576Z,18.04
2018-06-22T11:59:17.556Z,18.11
2018-06-22T12:00:17.582Z,18.32
2018-06-22T12:01:17.539Z,18.34
2018-06-22T12:02:24.535Z,18.42
2018-06-22T12:03:17.521Z,18.46
2018-06-22T12:04:17.509Z,18.64
2018-06-22T12:05:17.650Z,18.72
2018-06-22T12:06:17.475Z,18.69
2018-06-22T12:07:17.468Z,18.51
2018-06-22T12:08:17.417Z,18.59
2018-06-22T12:09:17.443Z,18.76
2018-06-22T12:10:17.468Z,18.94
2018-06-22T12:11:17.434Z,19.06
2018-06-22T12:12:17.424Z,19.01
2018-06-22T12:13:17.409Z,19.09
2018-06-22T12:14:17.394Z,18.84
2018-06-22T12:15:17.422Z,18.72
2018-06-22T12:16:17.384Z,18.72
2018-06-22T12:17:17.375Z,18.59
2018-06-22T12:18:17.342Z,18.83
2018-06-22T12:19:17.470Z,18.94
2018-06-22T12:20:17.353Z,18.99
2018-06-22T12:21:17.311Z,18.91
2018-06-22T12:22:17.310Z,18.97
2018-06-22T12:23:17.313Z,19.05
2018-06-22T12:24:17.291Z,18.89
2018-06-22T12:25:17.285Z,18.74
2018-06-22T12:26:17.266Z,18.59
2018-06-22T12:27:17.247Z,18.20
2018-06-22T12:28:17.249Z,18.04
2018-06-22T12:29:17.251Z,17.83
2018-06-22T12:30:17.259Z,17.47
2018-06-22T12:31:17.204Z,17.38
2018-06-22T12:32:17.162Z,17.05
2018-06-22T12:33:17.188Z,17.05
2018-06-22T12:34:17.167Z,16.91
2018-06-22T12:35:17.250Z,16.85
2018-06-22T12:36:17.190Z,16.82
2018-06-22T12:37:17.219Z,16.81
2018-06-22T12:38:17.125Z,16.87
2018-06-22T12:39:17.119Z,16.90
2018-06-22T12:40:17.137Z,16.95
2018-06-22T12:41:17.111Z,17.05
2018-06-22T12:42:17.101Z,17.09
2018-06-22T12:43:17.074Z,17.18
2018-06-22T12:44:17.061Z,17.39
2018-06-22T12:45:17.133Z,17.43
2018-06-22T12:46:17.046Z,17.57
2018-06-22T12:47:17.034Z,17.66
2018-06-22T12:48:17.029Z,17.76
2018-06-22T12:49:17.021Z,17.94
2018-06-22T12:50:17.018Z,17.91
2018-06-22T12:51:17.061Z,17.99
2018-06-22T12:52:16.985Z,17.87